createdAt,value
2022-08-22T00:03:17.121Z,80
2022-08-22T00:05:07.110Z,80
2022-08-22T00:09:09.430Z,81
2022-08-22T00:11:11.073Z,81
2022-08-22T00:13:13.107Z,81
2022-08-22T00:15:08.505Z,81
2022-08-22T00:17:09.489Z,81
2022-08-22T00:21:12.631Z,81
2022-08-22T00:23:09.383Z,81
2022-08-22T00:25:24.903Z,81
2022-08-22T00:27:08.881Z,81
2022-08-22T00:29:09.993Z,81
2022-08-22T00:33:12.540Z,82
2022-08-22T00:35:09.652Z,83
2022-08-22T00:39:11.937Z,83
2022-08-22T00:41:09.724Z,83
2022-08-22T00:43:13.034Z,83
2022-08-22T00:45:06.164Z,82
2022-08-22T00:47:10.836Z,82
2022-08-22T00:51:13.023Z,83
2022-08-22T00:53:12.315Z,83
2022-08-22T00:57:11.898Z,82
2022-08-22T00:59:18.149Z,82
2022-08-22T01:03:12.275Z,82
2022-08-22T01:05:09.187Z,82
2022-08-22T01:09:09.690Z,82
2022-08-22T01:11:10.680Z,81
2022-08-22T01:15:15.296Z,81
2022-08-22T01:17:12.395Z,80
2022-08-22T01:21:09.529Z,80
2022-08-22T01:23:09.278Z,80
2022-08-22T01:25:13.211Z,80
2022-08-22T01:27:12.598Z,80
2022-08-22T01:29:09.475Z,81
2022-08-22T01:31:13.070Z,81
2022-08-22T01:33:09.479Z,82
2022-08-22T01:35:12.681Z,82
2022-08-22T01:39:09.685Z,81
2022-08-22T01:41:10.364Z,81
2022-08-22T01:45:09.912Z,82
2022-08-22T01:47:09.464Z,83
2022-08-22T01:49:13.146Z,83
2022-08-22T01:51:12.765Z,83
2022-08-22T01:53:10.184Z,83
2022-08-22T01:55:13.167Z,83
2022-08-22T01:57:12.002Z,83
2022-08-22T01:59:12.243Z,83
2022-08-22T02:01:13.074Z,83
2022-08-22T02:03:09.534Z,83
2022-08-22T02:05:09.505Z,83
2022-08-22T02:07:13.234Z,83
2022-08-22T02:09:11.606Z,83
2022-08-22T02:11:12.724Z,82
2022-08-22T02:15:09.440Z,82
2022-08-22T02:17:10.105Z,82
2022-08-22T02:21:13.146Z,82
2022-08-22T02:23:09.546Z,82
2022-08-22T02:27:10.999Z,83
2022-08-22T02:29:10.612Z,83
2022-08-22T02:31:12.076Z,83
2022-08-22T02:33:09.508Z,83
2022-08-22T02:35:10.166Z,83
2022-08-22T02:39:09.476Z,84
2022-08-22T02:41:09.312Z,84
2022-08-22T02:43:12.862Z,84
2022-08-22T02:45:09.167Z,83
2022-08-22T02:47:11.186Z,84
2022-08-22T02:51:12.682Z,84
2022-08-22T02:53:12.809Z,84
2022-08-22T02:55:13.143Z,84
2022-08-22T02:57:14.368Z,84
2022-08-22T02:59:11.460Z,83
2022-08-22T03:01:13.180Z,84
2022-08-22T03:03:12.753Z,84
2022-08-22T03:05:10.113Z,84
2022-08-22T03:07:14.302Z,84
2022-08-22T03:09:12.645Z,84
2022-08-22T03:11:11.091Z,84
2022-08-22T03:15:09.611Z,84
2022-08-22T03:17:09.535Z,84
2022-08-22T03:21:07.404Z,84
2022-08-22T03:23:09.699Z,84
2022-08-22T03:27:09.543Z,85
2022-08-22T03:29:12.553Z,85
2022-08-22T03:31:12.973Z,84
2022-08-22T03:33:09.081Z,85
2022-08-22T03:35:09.598Z,85
2022-08-22T03:39:14.124Z,85
2022-08-22T03:41:10.410Z,85
2022-08-22T03:45:11.979Z,84
2022-08-22T03:47:09.554Z,85
2022-08-22T03:51:10.671Z,84
2022-08-22T03:53:10.379Z,85
2022-08-22T03:57:09.538Z,85
2022-08-22T03:59:10.347Z,85
2022-08-22T04:01:13.298Z,85
2022-08-22T04:03:09.578Z,85
2022-08-22T04:05:12.431Z,85
2022-08-22T04:09:09.161Z,85
2022-08-22T04:11:11.311Z,85
2022-08-22T04:15:11.204Z,85
2022-08-22T04:17:09.734Z,85
2022-08-22T04:19:13.193Z,85
2022-08-22T04:21:09.585Z,85
2022-08-22T04:23:05.809Z,85
2022-08-22T04:25:13.021Z,85
2022-08-22T04:27:11.515Z,85
2022-08-22T04:29:14.408Z,85
2022-08-22T04:31:16.267Z,85
2022-08-22T04:33:09.341Z,85
2022-08-22T04:35:09.649Z,85
2022-08-22T04:39:11.135Z,85
2022-08-22T04:41:12.895Z,85
2022-08-22T04:43:13.087Z,85
2022-08-22T04:45:10.801Z,85
2022-08-22T04:47:09.739Z,85
2022-08-22T04:51:10.845Z,85
2022-08-22T04:53:09.260Z,85
2022-08-22T04:55:13.063Z,85
2022-08-22T04:57:12.855Z,85
2022-08-22T04:59:09.743Z,85
2022-08-22T05:03:09.569Z,85
2022-08-22T05:05:13.130Z,84
2022-08-22T05:09:12.954Z,85
2022-08-22T05:11:10.247Z,84
2022-08-22T05:13:13.405Z,84
2022-08-22T05:15:09.680Z,84
2022-08-22T05:17:09.252Z,84
2022-08-22T05:21:13.780Z,84
2022-08-22T05:25:13.167Z,84
2022-08-22T05:27:09.744Z,84
2022-08-22T05:29:08.216Z,84
2022-08-22T05:31:13.005Z,83
2022-08-22T05:33:11.869Z,83
2022-08-22T05:35:14.401Z,83
2022-08-22T05:39:09.727Z,83
2022-08-22T05:41:08.926Z,83
2022-08-22T05:43:12.623Z,83
2022-08-22T05:45:12.154Z,83
2022-08-22T05:47:09.692Z,83
2022-08-22T05:49:13.049Z,83
2022-08-22T05:51:10.333Z,83
2022-08-22T05:53:12.874Z,83
2022-08-22T05:55:13.230Z,83
2022-08-22T05:57:11.590Z,82
2022-08-22T05:59:12.916Z,83
2022-08-22T06:01:13.073Z,82
2022-08-22T06:03:12.747Z,83
2022-08-22T06:05:12.801Z,82
2022-08-22T06:09:10.801Z,74
2022-08-22T06:11:11.111Z,73
2022-08-22T06:13:13.430Z,72
2022-08-22T06:15:12.770Z,71
2022-08-22T06:17:09.761Z,71
2022-08-22T06:21:06.261Z,70
2022-08-22T06:23:09.751Z,70
2022-08-22T06:25:13.367Z,69
2022-08-22T06:27:09.634Z,69
2022-08-22T06:29:10.889Z,69
2022-08-22T06:31:13.023Z,69
2022-08-22T06:33:12.431Z,68
2022-08-22T06:35:15.927Z,68
2022-08-22T06:37:13.101Z,70
2022-08-22T06:39:12.794Z,67
2022-08-22T06:41:09.840Z,67
2022-08-22T06:43:13.025Z,67
2022-08-22T06:45:12.375Z,66
2022-08-22T06:47:10.366Z,65
2022-08-22T06:51:08.810Z,69
2022-08-22T06:53:13.210Z,69
2022-08-22T06:55:12.973Z,68
2022-08-22T06:57:11.621Z,70
2022-08-22T06:59:10.733Z,67
2022-08-22T07:01:13.440Z,68
2022-08-22T07:03:14.307Z,68
2022-08-22T07:05:10.955Z,70
2022-08-22T07:07:13.331Z,69
2022-08-22T07:09:11.951Z,68
2022-08-22T07:11:12.520Z,66
2022-08-22T07:15:11.103Z,65
2022-08-22T07:21:12.017Z,59
2022-08-22T07:23:12.871Z,59
2022-08-22T07:27:11.411Z,58
2022-08-22T07:29:12.731Z,58
2022-08-22T07:33:21.064Z,58
2022-08-22T07:35:11.109Z,57
2022-08-22T07:37:13.569Z,57
2022-08-22T07:39:12.864Z,58
2022-08-22T07:41:09.960Z,57
2022-08-22T07:43:13.102Z,55
2022-08-22T07:45:11.974Z,56
2022-08-22T07:47:12.165Z,55
2022-08-22T07:51:07.553Z,56
2022-08-22T07:53:08.652Z,55
2022-08-22T07:55:13.057Z,56
2022-08-22T07:57:08.911Z,54
2022-08-22T07:59:10.020Z,55
2022-08-22T08:03:10.977Z,55
2022-08-22T08:05:09.919Z,52
2022-08-22T08:07:13.343Z,54
2022-08-22T08:09:08.893Z,53
2022-08-22T08:11:12.791Z,54
2022-08-22T08:15:12.886Z,53
2022-08-22T08:17:12.843Z,51
2022-08-22T08:21:13.311Z,52
2022-08-22T08:23:09.577Z,52
2022-08-22T08:25:13.156Z,51
2022-08-22T08:27:09.668Z,52
2022-08-22T08:29:09.223Z,52
2022-08-22T08:31:13.415Z,52
2022-08-22T08:33:24.567Z,51
2022-08-22T08:35:07.226Z,51
2022-08-22T08:37:13.350Z,52
2022-08-22T08:39:07.485Z,52
2022-08-22T08:41:09.917Z,52
2022-08-22T08:43:15.747Z,53
2022-08-22T08:45:10.250Z,52
2022-08-22T08:47:11.548Z,52
2022-08-22T08:49:13.279Z,52
2022-08-22T08:51:09.715Z,52
2022-08-22T08:53:09.703Z,53
2022-08-22T08:57:10.849Z,52
2022-08-22T08:59:12.971Z,52
2022-08-22T09:03:09.635Z,52
2022-08-22T09:05:12.647Z,51
2022-08-22T09:09:12.504Z,51
2022-08-22T09:11:12.555Z,51
2022-08-22T09:17:10.723Z,50
2022-08-22T09:19:12.984Z,49
2022-08-22T09:21:12.586Z,50
2022-08-22T09:27:12.201Z,50
2022-08-22T09:29:09.443Z,50
2022-08-22T09:33:12.230Z,50
2022-08-22T09:35:05.905Z,49
2022-08-22T09:37:14.042Z,49
2022-08-22T09:39:06.302Z,50
2022-08-22T09:40:15.883Z,51
2022-08-22T09:41:12.899Z,49
2022-08-22T09:45:12.421Z,48
2022-08-22T09:47:09.733Z,48
2022-08-22T09:51:29.085Z,49
2022-08-22T09:53:09.150Z,49
2022-08-22T09:55:13.434Z,49
2022-08-22T09:57:09.724Z,49
2022-08-22T09:59:09.690Z,49
2022-08-22T10:03:12.939Z,49
2022-08-22T10:05:13.000Z,48
2022-08-22T10:09:12.881Z,48
2022-08-22T10:11:12.814Z,48
2022-08-22T10:15:08.488Z,48
2022-08-22T10:17:08.731Z,48
2022-08-22T10:21:09.688Z,48
2022-08-22T10:23:10.921Z,49
2022-08-22T10:27:09.705Z,49
2022-08-22T10:29:13.710Z,49
2022-08-22T10:33:09.459Z,50
2022-08-22T10:35:11.316Z,50
2022-08-22T10:39:11.587Z,50
2022-08-22T10:41:11.452Z,50
2022-08-22T10:43:13.850Z,51
2022-08-22T10:47:12.969Z,51
2022-08-22T10:51:09.937Z,51
2022-08-22T10:53:07.716Z,51
2022-08-22T10:57:11.016Z,50
2022-08-22T10:59:11.814Z,51
2022-08-22T11:01:15.117Z,52
2022-08-22T11:03:15.876Z,51
2022-08-22T11:05:10.990Z,51
2022-08-22T11:09:08.685Z,50
2022-08-22T11:11:11.040Z,50
2022-08-22T11:13:10.689Z,51
2022-08-22T11:15:12.386Z,49
2022-08-22T11:17:28.162Z,50
2022-08-22T11:19:15.424Z,50
2022-08-22T11:21:11.206Z,52
2022-08-22T11:23:12.253Z,49
2022-08-22T11:27:12.930Z,50
2022-08-22T11:29:13.380Z,49
2022-08-22T11:31:14.100Z,48
2022-08-22T11:33:09.610Z,47
2022-08-22T11:35:12.903Z,49
2022-08-22T11:37:14.165Z,49
2022-08-22T11:39:14.647Z,49
2022-08-22T11:41:09.723Z,48
2022-08-22T11:43:17.290Z,48
2022-08-22T11:45:09.206Z,48
2022-08-22T11:47:06.383Z,48
2022-08-22T11:53:10.441Z,49
2022-08-22T11:59:13.869Z,49
2022-08-22T12:03:05.864Z,49
2022-08-22T12:05:13.732Z,49
2022-08-22T12:07:14.263Z,49
2022-08-22T12:09:12.762Z,48
2022-08-22T12:11:14.215Z,49
2022-08-22T12:15:12.828Z,48
2022-08-22T12:17:21.294Z,48
2022-08-22T12:21:11.586Z,47
2022-08-22T12:23:12.859Z,48
2022-08-22T12:27:08.992Z,48
2022-08-22T12:29:15.175Z,48
2022-08-22T12:31:13.902Z,47
2022-08-22T12:33:09.739Z,46
2022-08-22T12:35:13.579Z,47
2022-08-22T12:37:14.187Z,46
2022-08-22T12:39:09.242Z,47
2022-08-22T12:41:12.904Z,49
2022-08-22T12:45:09.648Z,48
2022-08-22T12:47:09.185Z,47
2022-08-22T12:51:16.752Z,47
2022-08-22T12:53:09.667Z,47
2022-08-22T12:57:24.133Z,49
2022-08-22T12:59:06.519Z,47
2022-08-22T13:03:07.270Z,48
2022-08-22T13:05:11.320Z,46
2022-08-22T13:07:13.896Z,46
2022-08-22T13:09:09.811Z,47
2022-08-22T13:11:10.064Z,46
2022-08-22T13:15:10.847Z,46
2022-08-22T13:17:10.100Z,46
2022-08-22T13:21:14.482Z,46
2022-08-22T13:23:12.455Z,46
2022-08-22T13:29:25.510Z,47
2022-08-22T13:33:09.927Z,45
2022-08-22T13:35:14.426Z,45
2022-08-22T13:39:09.688Z,95
2022-08-22T13:41:11.513Z,44
2022-08-22T13:43:14.315Z,44
2022-08-22T13:45:06.392Z,45
2022-08-22T13:47:14.483Z,45
2022-08-22T13:51:09.595Z,45
2022-08-22T13:53:11.411Z,44
2022-08-22T13:57:11.178Z,45
2022-08-22T13:59:09.598Z,43
2022-08-22T14:01:14.388Z,43
2022-08-22T14:03:13.149Z,45
2022-08-22T14:05:09.689Z,44
2022-08-22T14:09:09.758Z,44
2022-08-22T14:11:13.652Z,45
2022-08-22T14:15:10.599Z,45
2022-08-22T14:17:09.682Z,44
2022-08-22T14:21:11.878Z,45
2022-08-22T14:23:09.895Z,46
2022-08-22T14:27:09.563Z,44
2022-08-22T14:29:11.068Z,45
2022-08-22T14:33:10.749Z,45
2022-08-22T14:35:13.557Z,45
2022-08-22T14:37:14.350Z,45
2022-08-22T14:39:12.909Z,93
2022-08-22T14:41:09.723Z,45
2022-08-22T14:43:14.893Z,45
2022-08-22T14:45:06.988Z,45
2022-08-22T14:47:34.501Z,46
2022-08-22T14:49:14.660Z,46
2022-08-22T14:51:12.949Z,46
2022-08-22T14:53:09.280Z,47
2022-08-22T14:55:14.461Z,47
2022-08-22T14:57:10.246Z,46
2022-08-22T14:59:09.766Z,46
2022-08-22T15:05:09.720Z,47
2022-08-22T15:09:09.746Z,47
2022-08-22T15:11:09.305Z,99
2022-08-22T15:15:06.399Z,46
2022-08-22T15:17:09.260Z,48
2022-08-22T15:21:10.060Z,47
2022-08-22T15:23:13.672Z,47
2022-08-22T15:27:06.681Z,47
2022-08-22T15:29:13.868Z,47
2022-08-22T15:31:14.498Z,47
2022-08-22T15:33:09.543Z,46
2022-08-22T15:35:13.659Z,47
2022-08-22T15:37:16.134Z,47
2022-08-22T15:39:09.829Z,47
2022-08-22T15:41:09.649Z,46
2022-08-22T15:45:11.393Z,47
2022-08-22T15:47:13.472Z,47
2022-08-22T15:51:09.292Z,47
2022-08-22T15:53:09.661Z,46
2022-08-22T15:57:09.201Z,47
2022-08-22T15:59:09.889Z,47
2022-08-22T16:03:12.039Z,46
2022-08-22T16:05:10.124Z,46
2022-08-22T16:07:14.534Z,46
2022-08-22T16:09:13.063Z,46
2022-08-22T16:11:11.705Z,47
2022-08-22T16:13:14.361Z,47
2022-08-22T16:15:12.758Z,48
2022-08-22T16:17:12.983Z,47
2022-08-22T16:19:14.809Z,46
2022-08-22T16:21:16.116Z,46
2022-08-22T16:23:09.301Z,47
2022-08-22T16:27:12.951Z,46
2022-08-22T16:29:18.127Z,46
2022-08-22T16:31:14.385Z,47
2022-08-22T16:33:12.261Z,47
2022-08-22T16:35:13.405Z,47
2022-08-22T16:39:07.971Z,47
2022-08-22T16:41:13.878Z,47
2022-08-22T16:45:12.998Z,47
2022-08-22T16:47:11.563Z,48
2022-08-22T16:49:14.910Z,47
2022-08-22T16:51:11.385Z,48
2022-08-22T16:53:13.283Z,47
2022-08-22T16:57:14.463Z,47
2022-08-22T16:59:22.262Z,47
2022-08-22T17:03:08.804Z,47
2022-08-22T17:05:12.946Z,48
2022-08-22T17:09:09.919Z,47
2022-08-22T17:11:08.957Z,48
2022-08-22T17:15:12.149Z,48
2022-08-22T17:17:11.549Z,48
2022-08-22T17:21:13.304Z,48
2022-08-22T17:23:06.408Z,48
2022-08-22T17:25:14.560Z,48
2022-08-22T17:29:17.691Z,49
2022-08-22T17:33:24.746Z,49
2022-08-22T17:35:18.549Z,50
2022-08-22T17:37:21.726Z,51
2022-08-22T17:39:24.883Z,52
2022-08-22T17:41:18.732Z,52
2022-08-22T17:43:21.491Z,52
2022-08-22T17:45:22.462Z,53
2022-08-22T17:47:19.448Z,53
2022-08-22T17:51:20.451Z,54
2022-08-22T17:53:19.132Z,54
2022-08-22T17:55:21.694Z,54
2022-08-22T17:57:21.049Z,54
2022-08-22T17:59:23.487Z,54
2022-08-22T18:01:21.676Z,55
2022-08-22T18:03:18.719Z,56
2022-08-22T18:05:21.285Z,56
2022-08-22T18:07:21.616Z,57
2022-08-22T18:09:18.716Z,57
2022-08-22T18:11:25.107Z,57
2022-08-22T18:15:22.199Z,58
2022-08-22T18:17:20.033Z,58
2022-08-22T18:19:21.860Z,58
2022-08-22T18:21:19.570Z,58
2022-08-22T18:23:21.307Z,58
2022-08-22T18:27:29.542Z,58
2022-08-22T18:29:20.788Z,59
2022-08-22T18:31:21.711Z,58
2022-08-22T18:33:20.964Z,58
2022-08-22T18:35:19.096Z,58
2022-08-22T18:39:18.723Z,59
2022-08-22T18:41:20.125Z,58
2022-08-22T18:45:20.819Z,59
2022-08-22T18:47:20.095Z,59
2022-08-22T18:49:21.784Z,59
2022-08-22T18:51:25.340Z,60
2022-08-22T18:53:18.780Z,60
2022-08-22T18:55:21.865Z,60
2022-08-22T18:57:18.740Z,61
2022-08-22T18:59:21.090Z,60
2022-08-22T19:01:25.106Z,60
2022-08-22T19:03:19.149Z,60
2022-08-22T19:05:21.426Z,60
2022-08-22T19:07:22.004Z,60
2022-08-22T19:09:19.590Z,60
2022-08-22T19:15:20.951Z,60
2022-08-22T19:17:19.986Z,60
2022-08-22T19:21:18.685Z,60
2022-08-22T19:23:21.729Z,60
2022-08-22T19:25:21.551Z,60
2022-08-22T19:27:18.808Z,61
2022-08-22T19:29:18.753Z,60
2022-08-22T19:33:19.575Z,60
2022-08-22T19:35:20.473Z,60
2022-08-22T19:39:18.751Z,59
2022-08-22T19:41:22.035Z,60
2022-08-22T19:43:19.081Z,60
2022-08-22T19:45:17.636Z,60
2022-08-22T19:47:21.994Z,61
2022-08-22T19:49:21.478Z,60
2022-08-22T19:51:20.881Z,60
2022-08-22T19:53:19.997Z,60
2022-08-22T19:57:18.766Z,60
2022-08-22T19:59:20.637Z,60
2022-08-22T20:01:22.596Z,60
2022-08-22T20:03:18.764Z,61
2022-08-22T20:05:21.050Z,61
2022-08-22T20:07:22.030Z,61
2022-08-22T20:09:21.656Z,61
2022-08-22T20:11:21.969Z,61
2022-08-22T20:13:24.656Z,61
2022-08-22T20:15:20.122Z,61
2022-08-22T20:17:24.912Z,61
2022-08-22T20:19:24.975Z,60
2022-08-22T20:21:19.169Z,60
2022-08-22T20:23:21.586Z,60
2022-08-22T20:27:22.092Z,60
2022-08-22T20:29:19.656Z,60
2022-08-22T20:31:21.599Z,59
2022-08-22T20:33:20.685Z,59
2022-08-22T20:35:18.588Z,59
2022-08-22T20:39:19.211Z,59
2022-08-22T20:41:21.217Z,58
2022-08-22T20:43:19.282Z,58
2022-08-22T20:45:18.969Z,58
2022-08-22T20:47:19.418Z,58
2022-08-22T20:51:20.876Z,57
2022-08-22T20:53:17.688Z,58
2022-08-22T20:55:21.667Z,57
2022-08-22T20:57:22.084Z,58
2022-08-22T20:59:20.737Z,60
2022-08-22T21:01:21.210Z,60
2022-08-22T21:03:21.034Z,60
2022-08-22T21:05:20.978Z,60
2022-08-22T21:07:25.271Z,60
2022-08-22T21:09:19.278Z,59
2022-08-22T21:11:18.960Z,59
2022-08-22T21:13:22.259Z,60
2022-08-22T21:15:18.940Z,60
2022-08-22T21:17:22.563Z,60
2022-08-22T21:19:21.677Z,60
2022-08-22T21:21:18.918Z,60
2022-08-22T21:23:18.890Z,61
2022-08-22T21:25:21.893Z,60
2022-08-22T21:27:22.113Z,60
2022-08-22T21:29:20.743Z,60
2022-08-22T21:31:21.746Z,60
2022-08-22T21:33:23.654Z,61
2022-08-22T21:35:20.916Z,61
2022-08-22T21:39:18.908Z,62
2022-08-22T21:41:19.643Z,61
2022-08-22T21:43:21.678Z,62
2022-08-22T21:45:18.955Z,63
2022-08-22T21:47:19.175Z,64
2022-08-22T21:51:17.374Z,63
2022-08-22T21:53:19.336Z,63
2022-08-22T21:55:21.911Z,65
2022-08-22T21:57:20.118Z,65
2022-08-22T21:59:17.428Z,64
2022-08-22T22:01:22.373Z,64
2022-08-22T22:03:18.954Z,66
2022-08-22T22:05:17.994Z,64
2022-08-22T22:07:21.692Z,65
2022-08-22T22:09:25.637Z,65
2022-08-22T22:11:21.398Z,66
2022-08-22T22:15:18.997Z,66
2022-08-22T22:17:21.966Z,67
2022-08-22T22:19:21.613Z,67
2022-08-22T22:21:22.198Z,68
2022-08-22T22:25:39.469Z,70
2022-08-22T22:27:19.660Z,69
2022-08-22T22:29:19.033Z,70
2022-08-22T22:31:22.135Z,70
2022-08-22T22:33:21.014Z,71
2022-08-22T22:35:19.341Z,71
2022-08-22T22:37:21.611Z,70
2022-08-22T22:41:19.013Z,71
2022-08-22T22:43:21.766Z,70
2022-08-22T22:45:18.935Z,69
2022-08-22T22:47:18.996Z,69
2022-08-22T22:51:20.831Z,67
2022-08-22T22:53:28.554Z,68
2022-08-22T22:55:24.521Z,68
2022-08-22T22:57:25.339Z,68
2022-08-22T23:03:22.248Z,69
2022-08-22T23:05:19.027Z,69
2022-08-22T23:09:18.957Z,70
2022-08-22T23:11:22.135Z,72
2022-08-22T23:15:19.995Z,73
2022-08-22T23:17:22.494Z,74
2022-08-22T23:19:18.972Z,75
2022-08-22T23:21:22.039Z,75
2022-08-22T23:23:20.123Z,76
2022-08-22T23:25:22.213Z,75
2022-08-22T23:27:20.750Z,75
2022-08-22T23:29:18.769Z,74
2022-08-22T23:31:21.532Z,73
2022-08-22T23:33:22.233Z,73
2022-08-22T23:35:22.174Z,73
2022-08-22T23:37:22.157Z,73
2022-08-22T23:39:21.852Z,74
2022-08-22T23:41:19.692Z,74
2022-08-22T23:45:19.008Z,75
2022-08-22T23:47:16.130Z,75
2022-08-22T23:51:22.255Z,76
2022-08-22T23:57:19.045Z,77
2022-08-22T23:59:20.691Z,78
